sensor_id;sensor_type;location;lat;lon;timestamp;temperature;humidity
10294;DHT22;5192;50.328;7.610;2023-02-28T00:01:26;0.80;1.90
10294;DHT22;5192;50.328;7.610;2023-02-28T00:03:53;0.70;1.90
10294;DHT22;5192;50.328;7.610;2023-02-28T00:06:20;0.70;2.80
10294;DHT22;5192;50.328;7.610;2023-02-28T00:08:47;0.60;3.80
10294;DHT22;5192;50.328;7.610;2023-02-28T00:11:18;0.50;4.50
10294;DHT22;5192;50.328;7.610;2023-02-28T00:13:45;0.40;4.80
10294;DHT22;5192;50.328;7.610;2023-02-28T00:16:20;0.30;5.80
10294;DHT22;5192;50.328;7.610;2023-02-28T00:18:48;0.10;8.50
10294;DHT22;5192;50.328;7.610;2023-02-28T00:21:17;0.00;8.80
10294;DHT22;5192;50.328;7.610;2023-02-28T00:23:45;-0.10;10.20
10294;DHT22;5192;50.328;7.610;2023-02-28T00:26:12;-0.10;11.20
10294;DHT22;5192;50.328;7.610;2023-02-28T00:28:39;-0.20;11.80
10294;DHT22;5192;50.328;7.610;2023-02-28T00:31:07;-0.30;12.60
10294;DHT22;5192;50.328;7.610;2023-02-28T00:33:35;-0.40;13.80
10294;DHT22;5192;50.328;7.610;2023-02-28T00:36:08;-0.50;14.80
10294;DHT22;5192;50.328;7.610;2023-02-28T00:38:38;-0.60;15.40
10294;DHT22;5192;50.328;7.610;2023-02-28T00:41:06;-0.70;16.30
10294;DHT22;5192;50.328;7.610;2023-02-28T00:43:36;-0.60;16.70
10294;DHT22;5192;50.328;7.610;2023-02-28T00:46:07;-0.70;16.80
10294;DHT22;5192;50.328;7.610;2023-02-28T00:48:35;-0.80;17.60
10294;DHT22;5192;50.328;7.610;2023-02-28T00:51:02;-0.90;18.10
10294;DHT22;5192;50.328;7.610;2023-02-28T00:53:30;-0.90;18.90
10294;DHT22;5192;50.328;7.610;2023-02-28T00:55:58;-1.00;19.50
10294;DHT22;5192;50.328;7.610;2023-02-28T00:58:24;-1.10;20.20
10294;DHT22;5192;50.328;7.610;2023-02-28T01:00:51;-1.10;20.90
10294;DHT22;5192;50.328;7.610;2023-02-28T01:03:20;-1.20;21.60
10294;DHT22;5192;50.328;7.610;2023-02-28T01:05:47;-1.20;22.00
10294;DHT22;5192;50.328;7.610;2023-02-28T01:08:14;-1.30;22.60
10294;DHT22;5192;50.328;7.610;2023-02-28T01:10:43;-1.30;22.90
10294;DHT22;5192;50.328;7.610;2023-02-28T01:13:10;-1.30;23.50
10294;DHT22;5192;50.328;7.610;2023-02-28T01:15:42;-1.40;23.60
10294;DHT22;5192;50.328;7.610;2023-02-28T01:18:10;-1.50;24.20
10294;DHT22;5192;50.328;7.610;2023-02-28T01:20:41;-1.50;24.90
10294;DHT22;5192;50.328;7.610;2023-02-28T01:23:07;-1.60;25.20
10294;DHT22;5192;50.328;7.610;2023-02-28T01:25:37;-1.70;26.10
10294;DHT22;5192;50.328;7.610;2023-02-28T01:28:05;-1.70;26.40
10294;DHT22;5192;50.328;7.610;2023-02-28T01:30:35;-1.70;26.80
10294;DHT22;5192;50.328;7.610;2023-02-28T01:33:03;-1.80;27.40
10294;DHT22;5192;50.328;7.610;2023-02-28T01:35:33;-1.80;27.50
10294;DHT22;5192;50.328;7.610;2023-02-28T01:38:00;-1.80;28.00
10294;DHT22;5192;50.328;7.610;2023-02-28T01:40:27;-1.90;28.60
10294;DHT22;5192;50.328;7.610;2023-02-28T01:42:54;-1.90;29.10
10294;DHT22;5192;50.328;7.610;2023-02-28T01:45:28;-2.00;29.30
10294;DHT22;5192;50.328;7.610;2023-02-28T01:48:01;-2.00;29.60
10294;DHT22;5192;50.328;7.610;2023-02-28T01:50:31;-2.00;30.20
10294;DHT22;5192;50.328;7.610;2023-02-28T01:53:06;-2.10;30.30
10294;DHT22;5192;50.328;7.610;2023-02-28T01:55:34;-2.10;30.30
10294;DHT22;5192;50.328;7.610;2023-02-28T01:58:04;-2.10;30.30
10294;DHT22;5192;50.328;7.610;2023-02-28T02:00:32;-2.10;29.90
10294;DHT22;5192;50.328;7.610;2023-02-28T02:03:01;-2.10;30.20
10294;DHT22;5192;50.328;7.610;2023-02-28T02:05:33;-2.10;30.00
10294;DHT22;5192;50.328;7.610;2023-02-28T02:08:13;-2.00;29.70
10294;DHT22;5192;50.328;7.610;2023-02-28T02:11:01;-2.10;29.60
10294;DHT22;5192;50.328;7.610;2023-02-28T02:16:46;-2.10;29.50
10294;DHT22;5192;50.328;7.610;2023-02-28T02:32:35;-2.20;29.40
10294;DHT22;5192;50.328;7.610;2023-02-28T02:35:28;-2.20;30.00
10294;DHT22;5192;50.328;7.610;2023-02-28T02:38:32;-2.30;30.00
10294;DHT22;5192;50.328;7.610;2023-02-28T02:41:50;-2.20;29.90
10294;DHT22;5192;50.328;7.610;2023-02-28T02:44:39;-2.20;29.00
10294;DHT22;5192;50.328;7.610;2023-02-28T02:47:15;-2.20;28.60
10294;DHT22;5192;50.328;7.610;2023-02-28T02:49:47;-2.20;28.60
10294;DHT22;5192;50.328;7.610;2023-02-28T02:52:18;-2.20;28.30
10294;DHT22;5192;50.328;7.610;2023-02-28T02:54:55;-2.20;28.00
10294;DHT22;5192;50.328;7.610;2023-02-28T02:57:30;-2.30;28.00
10294;DHT22;5192;50.328;7.610;2023-02-28T02:59:59;-2.30;28.10
10294;DHT22;5192;50.328;7.610;2023-02-28T03:02:29;-2.30;27.90
10294;DHT22;5192;50.328;7.610;2023-02-28T03:05:03;-2.30;27.70
10294;DHT22;5192;50.328;7.610;2023-02-28T03:07:34;-2.30;27.40
10294;DHT22;5192;50.328;7.610;2023-02-28T03:10:01;-2.30;27.70
10294;DHT22;5192;50.328;7.610;2023-02-28T03:12:40;-2.30;27.20
10294;DHT22;5192;50.328;7.610;2023-02-28T03:15:48;-2.30;26.70
10294;DHT22;5192;50.328;7.610;2023-02-28T03:30:19;-2.50;27.20
10294;DHT22;5192;50.328;7.610;2023-02-28T03:33:17;-2.60;27.20
10294;DHT22;5192;50.328;7.610;2023-02-28T03:36:08;-2.70;27.30
10294;DHT22;5192;50.328;7.610;2023-02-28T03:44:45;-2.70;27.60
10294;DHT22;5192;50.328;7.610;2023-02-28T03:50:14;-2.80;27.10
10294;DHT22;5192;50.328;7.610;2023-02-28T03:53:17;-2.80;27.20
10294;DHT22;5192;50.328;7.610;2023-02-28T03:56:03;-2.90;27.70
10294;DHT22;5192;50.328;7.610;2023-02-28T04:01:43;-3.00;28.10
10294;DHT22;5192;50.328;7.610;2023-02-28T04:04:11;-3.00;28.50
10294;DHT22;5192;50.328;7.610;2023-02-28T04:06:39;-2.90;28.80
10294;DHT22;5192;50.328;7.610;2023-02-28T04:09:09;-3.10;28.90
10294;DHT22;5192;50.328;7.610;2023-02-28T04:11:53;-3.10;29.10
10294;DHT22;5192;50.328;7.610;2023-02-28T04:14:22;-3.10;28.90
10294;DHT22;5192;50.328;7.610;2023-02-28T04:16:49;-3.10;28.60
10294;DHT22;5192;50.328;7.610;2023-02-28T04:19:17;-3.10;28.10
10294;DHT22;5192;50.328;7.610;2023-02-28T04:22:01;-3.10;27.80
10294;DHT22;5192;50.328;7.610;2023-02-28T04:24:28;-3.00;27.70
10294;DHT22;5192;50.328;7.610;2023-02-28T04:26:57;-3.00;26.60
10294;DHT22;5192;50.328;7.610;2023-02-28T04:29:35;-2.90;27.00
10294;DHT22;5192;50.328;7.610;2023-02-28T04:32:06;-2.90;27.30
10294;DHT22;5192;50.328;7.610;2023-02-28T04:34:33;-3.00;26.80
10294;DHT22;5192;50.328;7.610;2023-02-28T04:37:00;-3.00;26.60
10294;DHT22;5192;50.328;7.610;2023-02-28T04:39:26;-3.10;27.10
10294;DHT22;5192;50.328;7.610;2023-02-28T04:41:55;-3.20;27.30
10294;DHT22;5192;50.328;7.610;2023-02-28T04:44:22;-3.10;27.50
10294;DHT22;5192;50.328;7.610;2023-02-28T04:46:49;-3.20;27.30
10294;DHT22;5192;50.328;7.610;2023-02-28T04:49:16;-3.20;27.40
10294;DHT22;5192;50.328;7.610;2023-02-28T04:51:44;-3.20;27.90
10294;DHT22;5192;50.328;7.610;2023-02-28T04:54:14;-3.20;27.20
10294;DHT22;5192;50.328;7.610;2023-02-28T04:56:44;-3.20;27.50
10294;DHT22;5192;50.328;7.610;2023-02-28T04:59:12;-3.20;27.50
10294;DHT22;5192;50.328;7.610;2023-02-28T05:01:39;-3.30;27.70
10294;DHT22;5192;50.328;7.610;2023-02-28T05:04:04;-3.30;27.70
10294;DHT22;5192;50.328;7.610;2023-02-28T05:06:34;-3.40;27.60
10294;DHT22;5192;50.328;7.610;2023-02-28T05:09:02;-3.40;28.20
10294;DHT22;5192;50.328;7.610;2023-02-28T05:11:32;-3.40;28.40
10294;DHT22;5192;50.328;7.610;2023-02-28T05:14:06;-3.50;28.30
10294;DHT22;5192;50.328;7.610;2023-02-28T05:16:35;-3.40;28.00
10294;DHT22;5192;50.328;7.610;2023-02-28T05:19:02;-3.50;28.40
10294;DHT22;5192;50.328;7.610;2023-02-28T05:21:38;-3.60;28.50
10294;DHT22;5192;50.328;7.610;2023-02-28T05:24:13;-3.60;28.70
10294;DHT22;5192;50.328;7.610;2023-02-28T05:26:41;-3.60;29.00
10294;DHT22;5192;50.328;7.610;2023-02-28T05:29:08;-3.60;29.70
10294;DHT22;5192;50.328;7.610;2023-02-28T05:31:40;-3.40;29.30
10294;DHT22;5192;50.328;7.610;2023-02-28T05:34:08;-3.60;29.10
10294;DHT22;5192;50.328;7.610;2023-02-28T05:36:39;-3.60;29.10
10294;DHT22;5192;50.328;7.610;2023-02-28T05:39:07;-3.60;28.30
10294;DHT22;5192;50.328;7.610;2023-02-28T05:41:42;-3.60;28.70
10294;DHT22;5192;50.328;7.610;2023-02-28T05:44:09;-3.60;28.60
10294;DHT22;5192;50.328;7.610;2023-02-28T05:46:35;-3.60;28.20
10294;DHT22;5192;50.328;7.610;2023-02-28T05:49:01;-3.60;27.80
10294;DHT22;5192;50.328;7.610;2023-02-28T05:51:28;-3.50;27.90
10294;DHT22;5192;50.328;7.610;2023-02-28T05:54:02;-3.60;27.30
10294;DHT22;5192;50.328;7.610;2023-02-28T05:56:30;-3.60;26.60
10294;DHT22;5192;50.328;7.610;2023-02-28T05:58:57;-3.50;25.90
10294;DHT22;5192;50.328;7.610;2023-02-28T06:04:21;-3.50;25.20
10294;DHT22;5192;50.328;7.610;2023-02-28T06:06:52;-3.50;24.20
10294;DHT22;5192;50.328;7.610;2023-02-28T06:09:19;-3.40;24.50
10294;DHT22;5192;50.328;7.610;2023-02-28T06:11:47;-3.40;23.60
10294;DHT22;5192;50.328;7.610;2023-02-28T06:14:29;-3.40;23.80
10294;DHT22;5192;50.328;7.610;2023-02-28T06:16:59;-3.40;24.80
10294;DHT22;5192;50.328;7.610;2023-02-28T06:19:28;-3.50;24.30
10294;DHT22;5192;50.328;7.610;2023-02-28T06:21:57;-3.50;23.90
10294;DHT22;5192;50.328;7.610;2023-02-28T06:24:26;-3.50;25.00
10294;DHT22;5192;50.328;7.610;2023-02-28T06:26:56;-3.40;24.00
10294;DHT22;5192;50.328;7.610;2023-02-28T06:29:33;-3.50;23.90
10294;DHT22;5192;50.328;7.610;2023-02-28T06:32:01;-3.40;23.50
10294;DHT22;5192;50.328;7.610;2023-02-28T06:34:28;-3.40;23.50
10294;DHT22;5192;50.328;7.610;2023-02-28T06:36:54;-3.30;23.20
10294;DHT22;5192;50.328;7.610;2023-02-28T06:39:22;-3.30;23.00
10294;DHT22;5192;50.328;7.610;2023-02-28T06:41:49;-3.10;22.50
10294;DHT22;5192;50.328;7.610;2023-02-28T06:44:18;-3.10;22.20
10294;DHT22;5192;50.328;7.610;2023-02-28T06:46:45;-2.90;21.80
10294;DHT22;5192;50.328;7.610;2023-02-28T06:49:11;-2.80;20.80
10294;DHT22;5192;50.328;7.610;2023-02-28T06:51:41;-2.70;20.10
10294;DHT22;5192;50.328;7.610;2023-02-28T06:54:09;-2.60;20.20
10294;DHT22;5192;50.328;7.610;2023-02-28T06:56:39;-2.50;20.60
10294;DHT22;5192;50.328;7.610;2023-02-28T06:59:06;-2.50;19.30
10294;DHT22;5192;50.328;7.610;2023-02-28T07:01:33;-2.40;18.80
10294;DHT22;5192;50.328;7.610;2023-02-28T07:04:01;-2.30;18.20
10294;DHT22;5192;50.328;7.610;2023-02-28T07:06:28;-2.20;15.30
10294;DHT22;5192;50.328;7.610;2023-02-28T07:08:58;-2.20;14.50
10294;DHT22;5192;50.328;7.610;2023-02-28T07:11:26;-2.20;14.80
10294;DHT22;5192;50.328;7.610;2023-02-28T07:13:59;-2.30;15.40
10294;DHT22;5192;50.328;7.610;2023-02-28T07:16:25;-2.20;15.50
10294;DHT22;5192;50.328;7.610;2023-02-28T07:18:55;-2.20;15.30
10294;DHT22;5192;50.328;7.610;2023-02-28T07:21:21;-2.20;14.70
10294;DHT22;5192;50.328;7.610;2023-02-28T07:23:48;-2.20;14.30
10294;DHT22;5192;50.328;7.610;2023-02-28T07:26:17;-2.20;14.10
10294;DHT22;5192;50.328;7.610;2023-02-28T07:28:46;-2.20;13.90
10294;DHT22;5192;50.328;7.610;2023-02-28T07:31:14;-2.00;12.30
10294;DHT22;5192;50.328;7.610;2023-02-28T07:33:41;-2.00;12.20
10294;DHT22;5192;50.328;7.610;2023-02-28T07:36:15;-1.90;12.70
10294;DHT22;5192;50.328;7.610;2023-02-28T07:38:47;-1.90;13.40
10294;DHT22;5192;50.328;7.610;2023-02-28T07:41:16;-1.90;12.90
10294;DHT22;5192;50.328;7.610;2023-02-28T07:43:45;-1.80;11.40
10294;DHT22;5192;50.328;7.610;2023-02-28T07:46:12;-1.70;11.80
10294;DHT22;5192;50.328;7.610;2023-02-28T07:48:42;-1.80;11.90
10294;DHT22;5192;50.328;7.610;2023-02-28T07:51:09;-1.90;11.30
10294;DHT22;5192;50.328;7.610;2023-02-28T07:53:36;-1.90;11.60
10294;DHT22;5192;50.328;7.610;2023-02-28T07:56:02;-1.80;10.50
10294;DHT22;5192;50.328;7.610;2023-02-28T07:58:30;-1.80;10.90
10294;DHT22;5192;50.328;7.610;2023-02-28T08:01:04;-1.80;11.50
10294;DHT22;5192;50.328;7.610;2023-02-28T08:03:34;-1.70;10.20
10294;DHT22;5192;50.328;7.610;2023-02-28T08:06:09;-1.60;10.20
10294;DHT22;5192;50.328;7.610;2023-02-28T08:08:45;-1.50;9.20
10294;DHT22;5192;50.328;7.610;2023-02-28T08:11:12;-1.40;7.60
10294;DHT22;5192;50.328;7.610;2023-02-28T08:13:39;-1.30;6.50
10294;DHT22;5192;50.328;7.610;2023-02-28T08:16:06;-1.10;5.60
10294;DHT22;5192;50.328;7.610;2023-02-28T08:18:33;-0.90;4.20
10294;DHT22;5192;50.328;7.610;2023-02-28T08:20:59;-0.80;1.50
10294;DHT22;5192;50.328;7.610;2023-02-28T08:23:25;-0.70;2.90
10294;DHT22;5192;50.328;7.610;2023-02-28T08:25:59;-0.50;1.90
10294;DHT22;5192;50.328;7.610;2023-02-28T08:28:26;-0.30;1.00
10294;DHT22;5192;50.328;7.610;2023-02-28T08:30:54;0.00;1.00
10294;DHT22;5192;50.328;7.610;2023-02-28T08:33:22;-0.10;1.00
10294;DHT22;5192;50.328;7.610;2023-02-28T08:35:56;0.00;1.00
10294;DHT22;5192;50.328;7.610;2023-02-28T08:38:25;0.10;1.00
10294;DHT22;5192;50.328;7.610;2023-02-28T08:41:04;0.20;1.00
10294;DHT22;5192;50.328;7.610;2023-02-28T08:43:34;0.30;1.00
10294;DHT22;5192;50.328;7.610;2023-02-28T08:46:01;0.50;1.00
10294;DHT22;5192;50.328;7.610;2023-02-28T08:48:31;0.60;1.00
10294;DHT22;5192;50.328;7.610;2023-02-28T08:51:15;0.80;1.00
10294;DHT22;5192;50.328;7.610;2023-02-28T08:53:46;0.80;1.00
10294;DHT22;5192;50.328;7.610;2023-02-28T08:56:16;1.00;1.00
10294;DHT22;5192;50.328;7.610;2023-02-28T08:58:43;1.00;1.00
10294;DHT22;5192;50.328;7.610;2023-02-28T09:01:15;1.00;1.00
10294;DHT22;5192;50.328;7.610;2023-02-28T09:03:45;1.10;1.00
10294;DHT22;5192;50.328;7.610;2023-02-28T09:06:15;1.10;1.00
10294;DHT22;5192;50.328;7.610;2023-02-28T09:08:44;1.20;1.00
10294;DHT22;5192;50.328;7.610;2023-02-28T09:11:12;1.20;1.00
10294;DHT22;5192;50.328;7.610;2023-02-28T09:13:41;1.20;1.00
10294;DHT22;5192;50.328;7.610;2023-02-28T09:16:14;1.20;1.00
10294;DHT22;5192;50.328;7.610;2023-02-28T09:18:40;1.20;1.00
10294;DHT22;5192;50.328;7.610;2023-02-28T09:21:09;1.30;1.00
10294;DHT22;5192;50.328;7.610;2023-02-28T09:23:37;1.30;1.00
10294;DHT22;5192;50.328;7.610;2023-02-28T09:26:07;1.50;1.00
10294;DHT22;5192;50.328;7.610;2023-02-28T09:28:34;1.50;1.00
10294;DHT22;5192;50.328;7.610;2023-02-28T09:31:01;1.60;1.00
10294;DHT22;5192;50.328;7.610;2023-02-28T09:33:28;1.60;1.00
10294;DHT22;5192;50.328;7.610;2023-02-28T09:36:00;1.70;1.00
10294;DHT22;5192;50.328;7.610;2023-02-28T09:38:29;1.70;1.00
10294;DHT22;5192;50.328;7.610;2023-02-28T09:41:01;1.90;1.00
10294;DHT22;5192;50.328;7.610;2023-02-28T09:43:36;1.90;1.00
10294;DHT22;5192;50.328;7.610;2023-02-28T09:46:32;2.10;1.00
10294;DHT22;5192;50.328;7.610;2023-02-28T09:49:08;2.20;1.00
10294;DHT22;5192;50.328;7.610;2023-02-28T09:51:59;2.20;1.00
10294;DHT22;5192;50.328;7.610;2023-02-28T09:54:32;2.30;1.00
10294;DHT22;5192;50.328;7.610;2023-02-28T09:57:06;2.30;1.00
10294;DHT22;5192;50.328;7.610;2023-02-28T10:03:24;2.40;1.00
10294;DHT22;5192;50.328;7.610;2023-02-28T10:11:22;2.40;1.00
10294;DHT22;5192;50.328;7.610;2023-02-28T10:13:59;2.50;1.00
10294;DHT22;5192;50.328;7.610;2023-02-28T10:16:38;2.50;1.00
10294;DHT22;5192;50.328;7.610;2023-02-28T10:19:16;2.70;1.00
10294;DHT22;5192;50.328;7.610;2023-02-28T10:22:11;2.60;1.00
10294;DHT22;5192;50.328;7.610;2023-02-28T10:24:51;2.70;1.00
10294;DHT22;5192;50.328;7.610;2023-02-28T10:27:35;2.80;1.00
10294;DHT22;5192;50.328;7.610;2023-02-28T10:30:03;2.90;1.00
10294;DHT22;5192;50.328;7.610;2023-02-28T10:32:34;3.00;1.00
10294;DHT22;5192;50.328;7.610;2023-02-28T10:37:59;3.10;1.00
10294;DHT22;5192;50.328;7.610;2023-02-28T10:40:45;3.20;1.00
10294;DHT22;5192;50.328;7.610;2023-02-28T10:43:21;3.10;1.00
10294;DHT22;5192;50.328;7.610;2023-02-28T10:49:05;2.70;1.00
10294;DHT22;5192;50.328;7.610;2023-02-28T10:51:41;2.60;1.00
10294;DHT22;5192;50.328;7.610;2023-02-28T10:54:33;2.50;1.00
10294;DHT22;5192;50.328;7.610;2023-02-28T10:57:23;2.70;1.00
10294;DHT22;5192;50.328;7.610;2023-02-28T11:00:24;3.10;1.00
10294;DHT22;5192;50.328;7.610;2023-02-28T11:02:55;3.40;1.00
10294;DHT22;5192;50.328;7.610;2023-02-28T11:05:35;3.60;1.00
10294;DHT22;5192;50.328;7.610;2023-02-28T11:08:20;3.90;1.00
10294;DHT22;5192;50.328;7.610;2023-02-28T11:10:58;4.00;1.00
10294;DHT22;5192;50.328;7.610;2023-02-28T11:13:33;4.20;1.00
10294;DHT22;5192;50.328;7.610;2023-02-28T11:16:05;4.40;1.00
10294;DHT22;5192;50.328;7.610;2023-02-28T11:18:52;4.50;1.00
10294;DHT22;5192;50.328;7.610;2023-02-28T11:21:36;4.70;1.00
10294;DHT22;5192;50.328;7.610;2023-02-28T11:24:25;4.50;1.00
10294;DHT22;5192;50.328;7.610;2023-02-28T11:26:54;4.60;1.00
10294;DHT22;5192;50.328;7.610;2023-02-28T11:29:36;4.70;1.00
10294;DHT22;5192;50.328;7.610;2023-02-28T11:32:19;4.90;1.00
10294;DHT22;5192;50.328;7.610;2023-02-28T11:35:02;4.90;1.00
10294;DHT22;5192;50.328;7.610;2023-02-28T11:37:31;5.00;1.00
10294;DHT22;5192;50.328;7.610;2023-02-28T11:40:00;5.30;1.00
10294;DHT22;5192;50.328;7.610;2023-02-28T11:42:50;5.50;1.00
10294;DHT22;5192;50.328;7.610;2023-02-28T11:48:26;5.90;1.00
10294;DHT22;5192;50.328;7.610;2023-02-28T11:51:11;6.10;1.00
10294;DHT22;5192;50.328;7.610;2023-02-28T11:53:51;6.00;1.00
10294;DHT22;5192;50.328;7.610;2023-02-28T12:00:07;6.30;1.00
10294;DHT22;5192;50.328;7.610;2023-02-28T12:05:36;6.40;1.00
10294;DHT22;5192;50.328;7.610;2023-02-28T12:09:00;6.50;1.00
10294;DHT22;5192;50.328;7.610;2023-02-28T12:11:26;6.50;1.00
10294;DHT22;5192;50.328;7.610;2023-02-28T12:23:36;7.00;1.00
10294;DHT22;5192;50.328;7.610;2023-02-28T12:31:48;7.20;1.00
10294;DHT22;5192;50.328;7.610;2023-02-28T12:34:36;7.50;1.00
10294;DHT22;5192;50.328;7.610;2023-02-28T12:37:15;7.80;1.00
10294;DHT22;5192;50.328;7.610;2023-02-28T12:39:51;7.90;1.00
10294;DHT22;5192;50.328;7.610;2023-02-28T12:42:42;7.90;1.00
10294;DHT22;5192;50.328;7.610;2023-02-28T12:45:48;7.70;1.00
10294;DHT22;5192;50.328;7.610;2023-02-28T12:48:37;7.70;1.00
10294;DHT22;5192;50.328;7.610;2023-02-28T12:51:15;7.50;1.00
10294;DHT22;5192;50.328;7.610;2023-02-28T12:54:09;7.30;1.00
10294;DHT22;5192;50.328;7.610;2023-02-28T12:57:01;7.20;1.00
10294;DHT22;5192;50.328;7.610;2023-02-28T13:10:54;7.70;1.00
10294;DHT22;5192;50.328;7.610;2023-02-28T13:13:35;7.70;1.00
10294;DHT22;5192;50.328;7.610;2023-02-28T13:16:09;7.70;1.00
10294;DHT22;5192;50.328;7.610;2023-02-28T13:18:39;8.00;1.00
10294;DHT22;5192;50.328;7.610;2023-02-28T13:21:24;8.50;1.00
10294;DHT22;5192;50.328;7.610;2023-02-28T13:24:11;8.80;1.00
10294;DHT22;5192;50.328;7.610;2023-02-28T13:39:55;11.10;1.00
10294;DHT22;5192;50.328;7.610;2023-02-28T13:45:26;12.00;1.00
10294;DHT22;5192;50.328;7.610;2023-02-28T13:48:18;12.00;1.00
10294;DHT22;5192;50.328;7.610;2023-02-28T13:50:45;12.50;1.00
10294;DHT22;5192;50.328;7.610;2023-02-28T13:53:39;12.60;1.00
10294;DHT22;5192;50.328;7.610;2023-02-28T13:56:19;12.90;1.00
10294;DHT22;5192;50.328;7.610;2023-02-28T13:59:15;12.50;1.00
10294;DHT22;5192;50.328;7.610;2023-02-28T14:02:03;11.70;1.00
10294;DHT22;5192;50.328;7.610;2023-02-28T14:05:05;12.20;1.00
10294;DHT22;5192;50.328;7.610;2023-02-28T14:07:47;12.60;1.00
10294;DHT22;5192;50.328;7.610;2023-02-28T14:16:05;12.20;1.00
10294;DHT22;5192;50.328;7.610;2023-02-28T14:18:41;12.10;1.00
10294;DHT22;5192;50.328;7.610;2023-02-28T14:27:12;11.60;1.00
10294;DHT22;5192;50.328;7.610;2023-02-28T14:36:08;11.60;1.00
10294;DHT22;5192;50.328;7.610;2023-02-28T14:41:38;10.60;1.00
10294;DHT22;5192;50.328;7.610;2023-02-28T14:47:03;10.10;1.00
10294;DHT22;5192;50.328;7.610;2023-02-28T14:49:53;9.60;1.00
10294;DHT22;5192;50.328;7.610;2023-02-28T14:52:34;9.10;1.00
10294;DHT22;5192;50.328;7.610;2023-02-28T14:55:14;9.00;1.00
10294;DHT22;5192;50.328;7.610;2023-02-28T14:57:55;8.80;1.00
10294;DHT22;5192;50.328;7.610;2023-02-28T15:00:30;8.70;1.00
10294;DHT22;5192;50.328;7.610;2023-02-28T15:03:00;8.40;1.00
10294;DHT22;5192;50.328;7.610;2023-02-28T15:08:17;7.90;1.00
10294;DHT22;5192;50.328;7.610;2023-02-28T15:13:49;7.60;1.00
10294;DHT22;5192;50.328;7.610;2023-02-28T15:16:23;7.40;1.00
10294;DHT22;5192;50.328;7.610;2023-02-28T15:21:54;7.10;1.00
10294;DHT22;5192;50.328;7.610;2023-02-28T15:24:49;7.10;1.00
10294;DHT22;5192;50.328;7.610;2023-02-28T15:27:32;7.10;1.00
10294;DHT22;5192;50.328;7.610;2023-02-28T15:30:18;7.10;1.00
10294;DHT22;5192;50.328;7.610;2023-02-28T15:33:24;7.00;1.00
10294;DHT22;5192;50.328;7.610;2023-02-28T15:36:13;7.10;1.00
10294;DHT22;5192;50.328;7.610;2023-02-28T15:38:53;6.80;1.00
10294;DHT22;5192;50.328;7.610;2023-02-28T15:41:54;6.60;1.00
10294;DHT22;5192;50.328;7.610;2023-02-28T15:44:35;6.50;1.00
10294;DHT22;5192;50.328;7.610;2023-02-28T15:50:12;6.60;1.00
10294;DHT22;5192;50.328;7.610;2023-02-28T15:52:47;6.60;1.00
10294;DHT22;5192;50.328;7.610;2023-02-28T15:55:22;6.70;1.00
10294;DHT22;5192;50.328;7.610;2023-02-28T15:58:00;6.60;1.00
10294;DHT22;5192;50.328;7.610;2023-02-28T16:00:29;6.60;1.00
10294;DHT22;5192;50.328;7.610;2023-02-28T16:02:56;6.60;1.00
10294;DHT22;5192;50.328;7.610;2023-02-28T16:05:41;6.60;1.00
10294;DHT22;5192;50.328;7.610;2023-02-28T16:08:16;6.60;1.00
10294;DHT22;5192;50.328;7.610;2023-02-28T16:10:44;6.50;1.00
10294;DHT22;5192;50.328;7.610;2023-02-28T16:13:13;6.50;1.00
10294;DHT22;5192;50.328;7.610;2023-02-28T16:15:42;6.40;1.00
10294;DHT22;5192;50.328;7.610;2023-02-28T16:18:13;6.30;1.00
10294;DHT22;5192;50.328;7.610;2023-02-28T16:20:40;6.30;1.00
10294;DHT22;5192;50.328;7.610;2023-02-28T16:23:08;6.20;1.00
10294;DHT22;5192;50.328;7.610;2023-02-28T16:25:38;6.00;1.00
10294;DHT22;5192;50.328;7.610;2023-02-28T16:28:12;5.90;1.00
10294;DHT22;5192;50.328;7.610;2023-02-28T16:30:43;5.80;1.00
10294;DHT22;5192;50.328;7.610;2023-02-28T16:33:13;5.80;1.00
10294;DHT22;5192;50.328;7.610;2023-02-28T16:35:38;5.90;1.00
10294;DHT22;5192;50.328;7.610;2023-02-28T16:38:05;5.90;1.00
10294;DHT22;5192;50.328;7.610;2023-02-28T16:40:34;5.70;1.00
10294;DHT22;5192;50.328;7.610;2023-02-28T16:43:06;5.60;1.00
10294;DHT22;5192;50.328;7.610;2023-02-28T16:45:34;5.70;1.00
10294;DHT22;5192;50.328;7.610;2023-02-28T16:48:01;5.60;1.00
10294;DHT22;5192;50.328;7.610;2023-02-28T16:50:29;5.60;1.00
10294;DHT22;5192;50.328;7.610;2023-02-28T16:52:56;5.60;1.00
10294;DHT22;5192;50.328;7.610;2023-02-28T16:55:26;5.60;1.00
10294;DHT22;5192;50.328;7.610;2023-02-28T16:57:57;5.30;1.00
10294;DHT22;5192;50.328;7.610;2023-02-28T17:00:24;5.10;1.00
10294;DHT22;5192;50.328;7.610;2023-02-28T17:02:52;5.00;1.00
10294;DHT22;5192;50.328;7.610;2023-02-28T17:05:17;4.80;1.00
10294;DHT22;5192;50.328;7.610;2023-02-28T17:07:46;4.60;1.00
10294;DHT22;5192;50.328;7.610;2023-02-28T17:10:22;4.40;1.00
10294;DHT22;5192;50.328;7.610;2023-02-28T17:12:50;4.30;1.00
10294;DHT22;5192;50.328;7.610;2023-02-28T17:15:18;4.10;1.00
10294;DHT22;5192;50.328;7.610;2023-02-28T17:17:48;4.00;1.00
10294;DHT22;5192;50.328;7.610;2023-02-28T17:20:18;3.80;1.00
10294;DHT22;5192;50.328;7.610;2023-02-28T17:22:49;3.70;1.00
10294;DHT22;5192;50.328;7.610;2023-02-28T17:25:18;3.50;1.00
10294;DHT22;5192;50.328;7.610;2023-02-28T17:27:45;3.40;1.00
10294;DHT22;5192;50.328;7.610;2023-02-28T17:30:26;3.20;1.00
10294;DHT22;5192;50.328;7.610;2023-02-28T17:32:57;3.00;1.00
10294;DHT22;5192;50.328;7.610;2023-02-28T17:35:24;2.80;1.00
10294;DHT22;5192;50.328;7.610;2023-02-28T17:37:54;2.70;1.00
10294;DHT22;5192;50.328;7.610;2023-02-28T17:40:22;2.50;1.00
10294;DHT22;5192;50.328;7.610;2023-02-28T17:42:50;2.40;1.00
10294;DHT22;5192;50.328;7.610;2023-02-28T17:45:19;2.20;1.00
10294;DHT22;5192;50.328;7.610;2023-02-28T17:47:48;2.00;1.00
10294;DHT22;5192;50.328;7.610;2023-02-28T17:50:23;1.80;1.00
10294;DHT22;5192;50.328;7.610;2023-02-28T17:52:50;1.70;1.00
10294;DHT22;5192;50.328;7.610;2023-02-28T17:55:17;1.50;1.00
10294;DHT22;5192;50.328;7.610;2023-02-28T17:57:45;1.40;1.00
10294;DHT22;5192;50.328;7.610;2023-02-28T18:00:16;1.30;1.00
10294;DHT22;5192;50.328;7.610;2023-02-28T18:02:45;1.20;1.00
10294;DHT22;5192;50.328;7.610;2023-02-28T18:05:12;1.10;1.00
10294;DHT22;5192;50.328;7.610;2023-02-28T18:07:39;1.00;1.00
10294;DHT22;5192;50.328;7.610;2023-02-28T18:10:13;1.00;1.00
10294;DHT22;5192;50.328;7.610;2023-02-28T18:12:41;0.80;1.00
10294;DHT22;5192;50.328;7.610;2023-02-28T18:15:11;0.80;1.00
10294;DHT22;5192;50.328;7.610;2023-02-28T18:17:37;0.70;1.00
10294;DHT22;5192;50.328;7.610;2023-02-28T18:20:06;0.60;1.00
10294;DHT22;5192;50.328;7.610;2023-02-28T18:22:36;0.60;1.00
10294;DHT22;5192;50.328;7.610;2023-02-28T18:25:04;0.50;1.00
10294;DHT22;5192;50.328;7.610;2023-02-28T18:27:31;0.40;1.00
10294;DHT22;5192;50.328;7.610;2023-02-28T18:29:57;0.30;1.00
10294;DHT22;5192;50.328;7.610;2023-02-28T18:32:26;0.20;1.00
10294;DHT22;5192;50.328;7.610;2023-02-28T18:34:53;0.10;1.00
10294;DHT22;5192;50.328;7.610;2023-02-28T18:37:20;0.10;1.00
10294;DHT22;5192;50.328;7.610;2023-02-28T18:39:46;0.00;1.00
10294;DHT22;5192;50.328;7.610;2023-02-28T18:42:14;0.00;1.00
10294;DHT22;5192;50.328;7.610;2023-02-28T18:44:40;0.00;1.00
10294;DHT22;5192;50.328;7.610;2023-02-28T18:47:08;-0.10;1.00
10294;DHT22;5192;50.328;7.610;2023-02-28T18:49:35;-0.10;1.00
10294;DHT22;5192;50.328;7.610;2023-02-28T18:52:04;-0.20;1.00
10294;DHT22;5192;50.328;7.610;2023-02-28T18:54:31;-0.20;1.00
10294;DHT22;5192;50.328;7.610;2023-02-28T18:57:00;-0.20;1.00
10294;DHT22;5192;50.328;7.610;2023-02-28T18:59:27;-0.30;1.00
10294;DHT22;5192;50.328;7.610;2023-02-28T19:01:54;-0.30;1.00
10294;DHT22;5192;50.328;7.610;2023-02-28T19:04:20;-0.30;1.00
10294;DHT22;5192;50.328;7.610;2023-02-28T19:06:46;-0.40;1.00